CheckWX is a tool to help pilots better visualize weather data.  It is not intended as a substitute for an official pre-flight weather briefing.

04:12:21 UTC

KCVG METAR
Cincinnati / Northern Kentucky International Airport
Covington, Kentucky, USA
Current

20 mins ago

KCVG 260352Z 19006KT 10SM SCT250 23/18 A3005 RMK AO2 SLP165 T02280183
Observed
May-26 @ 03:52 UTC
Wind
  • 190° at 6 KTS
Visibility
10 SM
Flight Rules
VFR
Cloud Levels
  • Scattered at 25,000' AGL
Temperature
23°C / 73°F
Dewpoint
18°C / 64°F
Humidity
74%
Altimeter
30.05" Hg
Pressure
1017.62 hPa
Previous

1 hour ago

KCVG 260252Z 20006KT 10SM BKN250 23/18 A3005 RMK AO2 SLP167 T02280183 53001
Observed
May-26 @ 02:52 UTC
Wind
  • 200° at 6 KTS
Visibility
10 SM
Flight Rules
VFR
Cloud Levels
  • Broken at 25,000' AGL
Temperature
23°C / 73°F
Dewpoint
18°C / 64°F
Humidity
74%
Altimeter
30.05" Hg
Pressure
1017.62 hPa
Previous

2 hours ago

KCVG 260152Z 19005KT 10SM BKN250 23/18 A3004 RMK AO2 SLP164 T02330183
Observed
May-26 @ 01:52 UTC
Wind
  • 190° at 5 KTS
Visibility
10 SM
Flight Rules
VFR
Cloud Levels
  • Broken at 25,000' AGL
Temperature
23°C / 73°F
Dewpoint
18°C / 64°F
Humidity
74%
Altimeter
30.04" Hg
Pressure
1017.32 hPa